sensor_id;sensor_type;location;lat;lon;timestamp;temperature;humidity
35305;DHT22;26433;48.034;-1.764;2023-03-01T06:03:53;2.50;67.10
35305;DHT22;26433;48.034;-1.764;2023-03-01T06:08:58;2.50;67.20
35305;DHT22;26433;48.034;-1.764;2023-03-01T06:14:01;2.50;67.30
35305;DHT22;26433;48.034;-1.764;2023-03-01T06:19:06;2.50;67.40
35305;DHT22;26433;48.034;-1.764;2023-03-01T06:24:10;2.50;67.30
35305;DHT22;26433;48.034;-1.764;2023-03-01T06:29:13;2.60;67.20
35305;DHT22;26433;48.034;-1.764;2023-03-01T06:34:19;2.50;67.10
35305;DHT22;26433;48.034;-1.764;2023-03-01T06:39:24;2.50;67.30
35305;DHT22;26433;48.034;-1.764;2023-03-01T06:44:27;2.50;67.30
35305;DHT22;26433;48.034;-1.764;2023-03-01T06:49:32;2.40;67.30
35305;DHT22;26433;48.034;-1.764;2023-03-01T06:54:36;2.50;67.30
35305;DHT22;26433;48.034;-1.764;2023-03-01T06:59:39;2.40;67.20
35305;DHT22;26433;48.034;-1.764;2023-03-01T07:04:44;2.50;67.40
35305;DHT22;26433;48.034;-1.764;2023-03-01T07:09:49;2.50;67.30
35305;DHT22;26433;48.034;-1.764;2023-03-01T07:14:52;2.50;67.30
35305;DHT22;26433;48.034;-1.764;2023-03-01T07:19:57;2.50;67.20
35305;DHT22;26433;48.034;-1.764;2023-03-01T07:25:01;2.50;67.30
35305;DHT22;26433;48.034;-1.764;2023-03-01T07:30:06;2.60;67.30
35305;DHT22;26433;48.034;-1.764;2023-03-01T07:35:11;2.50;67.10
35305;DHT22;26433;48.034;-1.764;2023-03-01T07:40:15;2.50;67.00
35305;DHT22;26433;48.034;-1.764;2023-03-01T07:45:18;2.60;66.90
35305;DHT22;26433;48.034;-1.764;2023-03-01T07:50:24;2.60;66.90
35305;DHT22;26433;48.034;-1.764;2023-03-01T07:55:27;2.70;66.80
35305;DHT22;26433;48.034;-1.764;2023-03-01T08:00:31;2.80;66.80
35305;DHT22;26433;48.034;-1.764;2023-03-01T08:05:36;2.90;66.60
35305;DHT22;26433;48.034;-1.764;2023-03-01T08:10:39;3.00;66.40
35305;DHT22;26433;48.034;-1.764;2023-03-01T08:15:43;3.20;66.40
35305;DHT22;26433;48.034;-1.764;2023-03-01T08:20:48;3.30;66.30
35305;DHT22;26433;48.034;-1.764;2023-03-01T08:25:51;3.50;66.10
35305;DHT22;26433;48.034;-1.764;2023-03-01T08:30:55;3.70;65.90
35305;DHT22;26433;48.034;-1.764;2023-03-01T08:36:06;3.70;65.70
35305;DHT22;26433;48.034;-1.764;2023-03-01T08:41:10;3.90;65.60
35305;DHT22;26433;48.034;-1.764;2023-03-01T08:46:13;3.90;65.40
35305;DHT22;26433;48.034;-1.764;2023-03-01T08:51:19;4.20;65.40
35305;DHT22;26433;48.034;-1.764;2023-03-01T08:56:23;4.30;65.30
35305;DHT22;26433;48.034;-1.764;2023-03-01T09:01:27;4.40;65.20
35305;DHT22;26433;48.034;-1.764;2023-03-01T09:06:32;4.60;64.90
35305;DHT22;26433;48.034;-1.764;2023-03-01T09:11:36;4.80;64.70
35305;DHT22;26433;48.034;-1.764;2023-03-01T09:16:40;5.00;64.30
35305;DHT22;26433;48.034;-1.764;2023-03-01T09:21:45;5.20;64.10
35305;DHT22;26433;48.034;-1.764;2023-03-01T09:26:55;5.50;63.80
35305;DHT22;26433;48.034;-1.764;2023-03-01T09:31:58;6.00;63.20
35305;DHT22;26433;48.034;-1.764;2023-03-01T09:37:04;6.50;62.50
35305;DHT22;26433;48.034;-1.764;2023-03-01T09:42:12;7.10;61.50
35305;DHT22;26433;48.034;-1.764;2023-03-01T09:47:18;7.70;61.10
35305;DHT22;26433;48.034;-1.764;2023-03-01T09:52:29;8.30;59.80
35305;DHT22;26433;48.034;-1.764;2023-03-01T09:57:38;8.90;59.00
35305;DHT22;26433;48.034;-1.764;2023-03-01T10:02:47;9.40;58.40
35305;DHT22;26433;48.034;-1.764;2023-03-01T10:07:58;9.80;57.80
35305;DHT22;26433;48.034;-1.764;2023-03-01T10:13:13;10.30;57.40
35305;DHT22;26433;48.034;-1.764;2023-03-01T10:18:20;10.70;56.50
35305;DHT22;26433;48.034;-1.764;2023-03-01T10:23:28;10.90;56.00
35305;DHT22;26433;48.034;-1.764;2023-03-01T10:28:42;11.00;56.00
35305;DHT22;26433;48.034;-1.764;2023-03-01T10:33:48;11.30;55.50
35305;DHT22;26433;48.034;-1.764;2023-03-01T10:38:58;11.70;54.90
35305;DHT22;26433;48.034;-1.764;2023-03-01T10:44:02;11.90;54.40
35305;DHT22;26433;48.034;-1.764;2023-03-01T10:49:13;12.00;54.00
35305;DHT22;26433;48.034;-1.764;2023-03-01T10:54:20;12.20;53.90
35305;DHT22;26433;48.034;-1.764;2023-03-01T10:59:28;12.60;53.50
35305;DHT22;26433;48.034;-1.764;2023-03-01T11:04:32;12.80;52.40
35305;DHT22;26433;48.034;-1.764;2023-03-01T11:09:37;12.90;52.30
35305;DHT22;26433;48.034;-1.764;2023-03-01T11:14:46;13.20;51.90
35305;DHT22;26433;48.034;-1.764;2023-03-01T11:20:02;13.70;51.30
35305;DHT22;26433;48.034;-1.764;2023-03-01T11:25:13;14.00;50.90
35305;DHT22;26433;48.034;-1.764;2023-03-01T11:30:20;14.30;50.50
35305;DHT22;26433;48.034;-1.764;2023-03-01T11:35:27;14.60;50.00
35305;DHT22;26433;48.034;-1.764;2023-03-01T11:40:37;14.90;49.70
35305;DHT22;26433;48.034;-1.764;2023-03-01T11:46:17;15.20;49.30
35305;DHT22;26433;48.034;-1.764;2023-03-01T11:51:25;15.50;48.80
35305;DHT22;26433;48.034;-1.764;2023-03-01T11:56:38;15.70;48.50
35305;DHT22;26433;48.034;-1.764;2023-03-01T12:01:51;15.70;48.10
35305;DHT22;26433;48.034;-1.764;2023-03-01T12:07:01;15.80;48.00
35305;DHT22;26433;48.034;-1.764;2023-03-01T12:12:32;15.60;47.70
35305;DHT22;26433;48.034;-1.764;2023-03-01T12:17:53;15.50;47.50
35305;DHT22;26433;48.034;-1.764;2023-03-01T12:23:33;15.60;47.30
35305;DHT22;26433;48.034;-1.764;2023-03-01T12:28:52;15.90;46.80
35305;DHT22;26433;48.034;-1.764;2023-03-01T12:34:05;16.10;46.30
35305;DHT22;26433;48.034;-1.764;2023-03-01T12:39:24;16.30;45.90
35305;DHT22;26433;48.034;-1.764;2023-03-01T12:44:53;16.50;45.30
35305;DHT22;26433;48.034;-1.764;2023-03-01T12:50:02;16.70;44.90
35305;DHT22;26433;48.034;-1.764;2023-03-01T13:00:32;16.30;44.80
35305;DHT22;26433;48.034;-1.764;2023-03-01T13:05:42;16.30;44.50
35305;DHT22;26433;48.034;-1.764;2023-03-01T13:10:53;16.50;44.30
35305;DHT22;26433;48.034;-1.764;2023-03-01T13:16:20;16.80;43.70
35305;DHT22;26433;48.034;-1.764;2023-03-01T13:21:31;17.20;43.20
35305;DHT22;26433;48.034;-1.764;2023-03-01T13:32:24;17.40;42.60
35305;DHT22;26433;48.034;-1.764;2023-03-01T13:37:44;17.40;42.90
35305;DHT22;26433;48.034;-1.764;2023-03-01T13:42:48;17.20;42.50
35305;DHT22;26433;48.034;-1.764;2023-03-01T13:48:14;17.00;42.70
35305;DHT22;26433;48.034;-1.764;2023-03-01T13:53:20;16.70;42.50
35305;DHT22;26433;48.034;-1.764;2023-03-01T13:58:26;16.60;42.60
35305;DHT22;26433;48.034;-1.764;2023-03-01T14:03:33;16.60;42.30
35305;DHT22;26433;48.034;-1.764;2023-03-01T14:08:45;16.40;42.20
35305;DHT22;26433;48.034;-1.764;2023-03-01T14:13:58;16.30;42.30
35305;DHT22;26433;48.034;-1.764;2023-03-01T14:19:14;16.30;42.20
35305;DHT22;26433;48.034;-1.764;2023-03-01T14:24:36;16.40;42.30
35305;DHT22;26433;48.034;-1.764;2023-03-01T14:29:41;16.20;42.10
35305;DHT22;26433;48.034;-1.764;2023-03-01T14:34:49;16.10;42.30
35305;DHT22;26433;48.034;-1.764;2023-03-01T14:39:54;16.10;42.20
35305;DHT22;26433;48.034;-1.764;2023-03-01T14:44:58;16.10;42.10
35305;DHT22;26433;48.034;-1.764;2023-03-01T14:50:09;15.90;42.10
35305;DHT22;26433;48.034;-1.764;2023-03-01T14:55:16;15.70;42.20
35305;DHT22;26433;48.034;-1.764;2023-03-01T15:00:23;15.70;42.30
35305;DHT22;26433;48.034;-1.764;2023-03-01T15:05:30;15.60;42.40
35305;DHT22;26433;48.034;-1.764;2023-03-01T15:10:35;15.30;42.50
35305;DHT22;26433;48.034;-1.764;2023-03-01T15:15:41;15.40;42.40
35305;DHT22;26433;48.034;-1.764;2023-03-01T15:20:47;15.10;42.60
35305;DHT22;26433;48.034;-1.764;2023-03-01T15:25:53;14.80;42.70
35305;DHT22;26433;48.034;-1.764;2023-03-01T15:31:02;14.40;43.10
35305;DHT22;26433;48.034;-1.764;2023-03-01T15:36:31;13.90;43.40
35305;DHT22;26433;48.034;-1.764;2023-03-01T15:41:46;13.60;43.80
35305;DHT22;26433;48.034;-1.764;2023-03-01T15:46:50;13.40;44.10
35305;DHT22;26433;48.034;-1.764;2023-03-01T15:51:55;13.10;44.40
35305;DHT22;26433;48.034;-1.764;2023-03-01T15:56:59;12.90;44.80
35305;DHT22;26433;48.034;-1.764;2023-03-01T16:02:07;12.50;45.20
35305;DHT22;26433;48.034;-1.764;2023-03-01T16:07:12;12.20;45.60
35305;DHT22;26433;48.034;-1.764;2023-03-01T16:12:16;11.90;45.90
35305;DHT22;26433;48.034;-1.764;2023-03-01T16:17:22;11.70;46.20
35305;DHT22;26433;48.034;-1.764;2023-03-01T16:22:27;11.40;46.70
35305;DHT22;26433;48.034;-1.764;2023-03-01T16:27:31;11.10;47.10
35305;DHT22;26433;48.034;-1.764;2023-03-01T16:32:37;10.90;47.40
35305;DHT22;26433;48.034;-1.764;2023-03-01T16:37:43;10.80;47.80
35305;DHT22;26433;48.034;-1.764;2023-03-01T16:42:47;10.60;48.10
35305;DHT22;26433;48.034;-1.764;2023-03-01T16:47:50;10.50;48.20
35305;DHT22;26433;48.034;-1.764;2023-03-01T16:52:59;10.30;48.50
35305;DHT22;26433;48.034;-1.764;2023-03-01T16:58:02;10.20;48.70
35305;DHT22;26433;48.034;-1.764;2023-03-01T17:03:06;10.10;49.10
35305;DHT22;26433;48.034;-1.764;2023-03-01T17:08:11;9.90;49.50
35305;DHT22;26433;48.034;-1.764;2023-03-01T17:13:15;9.70;49.60
35305;DHT22;26433;48.034;-1.764;2023-03-01T17:18:19;9.60;49.70
35305;DHT22;26433;48.034;-1.764;2023-03-01T17:23:24;9.50;49.80
35305;DHT22;26433;48.034;-1.764;2023-03-01T17:28:29;9.30;50.00
35305;DHT22;26433;48.034;-1.764;2023-03-01T17:33:33;9.10;50.20
35305;DHT22;26433;48.034;-1.764;2023-03-01T17:38:38;9.00;50.40
35305;DHT22;26433;48.034;-1.764;2023-03-01T17:43:42;8.80;50.60
35305;DHT22;26433;48.034;-1.764;2023-03-01T17:48:46;8.70;50.80
35305;DHT22;26433;48.034;-1.764;2023-03-01T17:53:52;8.60;51.10
35305;DHT22;26433;48.034;-1.764;2023-03-01T17:58:55;8.50;51.20
35305;DHT22;26433;48.034;-1.764;2023-03-01T18:03:59;8.40;51.40
35305;DHT22;26433;48.034;-1.764;2023-03-01T18:09:04;8.30;51.50
35305;DHT22;26433;48.034;-1.764;2023-03-01T18:14:08;8.20;51.80
35305;DHT22;26433;48.034;-1.764;2023-03-01T18:19:12;8.10;51.90
35305;DHT22;26433;48.034;-1.764;2023-03-01T18:24:16;8.00;51.90
35305;DHT22;26433;48.034;-1.764;2023-03-01T18:29:20;8.10;52.00
35305;DHT22;26433;48.034;-1.764;2023-03-01T18:34:24;7.90;52.10
35305;DHT22;26433;48.034;-1.764;2023-03-01T18:39:29;7.90;52.40
35305;DHT22;26433;48.034;-1.764;2023-03-01T18:44:32;7.80;52.50
35305;DHT22;26433;48.034;-1.764;2023-03-01T18:49:36;7.80;52.60
35305;DHT22;26433;48.034;-1.764;2023-03-01T18:54:41;7.70;59.50
35305;DHT22;26433;48.034;-1.764;2023-03-01T18:59:44;7.60;52.90
35305;DHT22;26433;48.034;-1.764;2023-03-01T19:04:49;7.50;53.10
35305;DHT22;26433;48.034;-1.764;2023-03-01T19:09:54;7.50;53.30
35305;DHT22;26433;48.034;-1.764;2023-03-01T19:14:57;7.60;53.30
35305;DHT22;26433;48.034;-1.764;2023-03-01T19:20:01;7.50;53.30
35305;DHT22;26433;48.034;-1.764;2023-03-01T19:25:07;7.50;53.60
35305;DHT22;26433;48.034;-1.764;2023-03-01T19:30:11;7.40;53.80
35305;DHT22;26433;48.034;-1.764;2023-03-01T19:35:15;7.30;54.00
35305;DHT22;26433;48.034;-1.764;2023-03-01T19:40:20;7.30;54.10
35305;DHT22;26433;48.034;-1.764;2023-03-01T19:45:24;7.30;54.20
35305;DHT22;26433;48.034;-1.764;2023-03-01T19:50:34;7.30;54.20
35305;DHT22;26433;48.034;-1.764;2023-03-01T19:55:41;7.30;54.30
35305;DHT22;26433;48.034;-1.764;2023-03-01T20:00:45;7.40;54.40
35305;DHT22;26433;48.034;-1.764;2023-03-01T20:05:49;7.40;54.50
35305;DHT22;26433;48.034;-1.764;2023-03-01T20:11:00;7.40;54.50
35305;DHT22;26433;48.034;-1.764;2023-03-01T20:16:06;7.40;54.60
35305;DHT22;26433;48.034;-1.764;2023-03-01T20:21:10;7.30;54.80
35305;DHT22;26433;48.034;-1.764;2023-03-01T20:26:27;7.30;55.00
35305;DHT22;26433;48.034;-1.764;2023-03-01T20:31:31;7.20;55.20
35305;DHT22;26433;48.034;-1.764;2023-03-01T20:36:34;7.10;55.30
35305;DHT22;26433;48.034;-1.764;2023-03-01T20:41:41;7.10;55.50
35305;DHT22;26433;48.034;-1.764;2023-03-01T20:51:48;6.90;55.50
35305;DHT22;26433;48.034;-1.764;2023-03-01T20:56:53;6.80;56.20
35305;DHT22;26433;48.034;-1.764;2023-03-01T21:01:57;6.60;56.40
35305;DHT22;26433;48.034;-1.764;2023-03-01T21:07:01;6.60;56.60
35305;DHT22;26433;48.034;-1.764;2023-03-01T21:12:05;6.60;56.50
35305;DHT22;26433;48.034;-1.764;2023-03-01T21:17:10;6.50;56.60
35305;DHT22;26433;48.034;-1.764;2023-03-01T21:22:15;6.40;56.80
35305;DHT22;26433;48.034;-1.764;2023-03-01T21:27:20;6.40;57.00
35305;DHT22;26433;48.034;-1.764;2023-03-01T21:32:23;6.40;57.00
35305;DHT22;26433;48.034;-1.764;2023-03-01T21:37:27;6.30;56.80
35305;DHT22;26433;48.034;-1.764;2023-03-01T21:42:33;6.30;56.90
35305;DHT22;26433;48.034;-1.764;2023-03-01T21:47:37;6.30;57.10
35305;DHT22;26433;48.034;-1.764;2023-03-01T21:52:41;6.20;57.20
35305;DHT22;26433;48.034;-1.764;2023-03-01T21:57:46;6.20;57.40
35305;DHT22;26433;48.034;-1.764;2023-03-01T22:02:49;6.10;57.60
35305;DHT22;26433;48.034;-1.764;2023-03-01T22:07:59;6.00;57.80
35305;DHT22;26433;48.034;-1.764;2023-03-01T22:13:04;5.90;57.90
35305;DHT22;26433;48.034;-1.764;2023-03-01T22:18:08;5.80;58.20
35305;DHT22;26433;48.034;-1.764;2023-03-01T22:23:13;5.70;58.80
35305;DHT22;26433;48.034;-1.764;2023-03-01T22:28:17;5.60;59.00
35305;DHT22;26433;48.034;-1.764;2023-03-01T22:33:22;5.60;58.60
35305;DHT22;26433;48.034;-1.764;2023-03-01T22:38:25;5.50;58.70
35305;DHT22;26433;48.034;-1.764;2023-03-01T22:43:31;5.40;58.80
35305;DHT22;26433;48.034;-1.764;2023-03-01T22:48:35;5.30;58.90
35305;DHT22;26433;48.034;-1.764;2023-03-01T22:53:38;5.20;59.00
35305;DHT22;26433;48.034;-1.764;2023-03-01T22:58:43;5.10;59.30
35305;DHT22;26433;48.034;-1.764;2023-03-01T23:03:47;5.10;59.40
35305;DHT22;26433;48.034;-1.764;2023-03-01T23:08:53;5.00;59.40
35305;DHT22;26433;48.034;-1.764;2023-03-01T23:13:58;5.00;59.60
35305;DHT22;26433;48.034;-1.764;2023-03-01T23:19:02;4.90;59.70
35305;DHT22;26433;48.034;-1.764;2023-03-01T23:24:07;4.80;59.80
35305;DHT22;26433;48.034;-1.764;2023-03-01T23:29:12;4.70;59.90
